Time;durP1;ratioP1;P1;durP2;ratioP2;P2;SDS_P1;SDS_P2;PMS_P1;PMS_P2;Temp;Humidity;BMP_temperature;BMP_pressure;BME280_temperature;BME280_humidity;BME280_pressure;Samples;Min_cycle;Max_cycle;Signal;HPM_P1;HPM_P2
2023/03/05 00:05:34;;;;;;;15.10;5.50;;;;;;;0.83;50.79;99756.10;682913;1259;138000;-81
2023/03/05 00:20:37;;;;;;;11.30;4.40;;;;;;;0.66;51.67;99749.45;683242;1261;137861;-88
2023/03/05 00:35:42;;;;;;;12.80;5.10;;;;;;;0.57;51.63;99728.23;682937;1261;137675;-82
2023/03/05 00:50:45;;;;;;;8.90;4.40;;;;;;;0.46;52.26;99711.15;683028;1262;137895;-85
2023/03/05 01:05:49;;;;;;;15.40;4.90;;;;;;;0.32;53.04;99706.38;682847;1259;137884;-82
2023/03/05 01:20:52;;;;;;;15.10;5.10;;;;;;;0.28;53.21;99692.36;682968;1260;137809;-82
2023/03/05 01:35:55;;;;;;;9.90;4.40;;;;;;;0.23;53.90;99677.13;682502;1262;138322;-82
2023/03/05 01:50:58;;;;;;;12.10;4.70;;;;;;;0.27;54.52;99671.38;682905;1262;137576;-86
2023/03/05 02:06:02;;;;;;;10.10;4.10;;;;;;;0.34;55.06;99656.59;682886;1263;138159;-83
2023/03/05 02:21:10;;;;;;;14.10;4.50;;;;;;;0.44;54.82;99643.46;682848;1257;138491;-81
2023/03/05 02:36:13;;;;;;;13.40;4.80;;;;;;;0.51;55.33;99631.88;683100;1262;138506;-83
2023/03/05 02:51:17;;;;;;;11.10;3.60;;;;;;;0.58;55.67;99618.40;683148;1262;138525;-81
2023/03/05 03:06:21;;;;;;;16.90;5.20;;;;;;;0.54;55.48;99610.92;683131;1262;138462;-80
2023/03/05 03:21:25;;;;;;;8.60;3.90;;;;;;;0.48;56.40;99598.63;683059;1263;138384;-82
2023/03/05 03:36:29;;;;;;;11.30;4.50;;;;;;;0.56;57.16;99588.41;683202;1262;138660;-81
2023/03/05 03:51:32;;;;;;;10.50;3.60;;;;;;;0.53;58.16;99569.13;683124;1262;138566;-81
2023/03/05 04:06:36;;;;;;;13.00;4.60;;;;;;;0.52;58.12;99553.53;683293;1262;138543;-81
2023/03/05 04:21:39;;;;;;;12.40;3.80;;;;;;;0.43;58.50;99531.52;683061;1263;138900;-80
2023/03/05 04:36:42;;;;;;;12.50;5.80;;;;;;;0.35;59.29;99484.98;683139;1263;139009;-79
2023/03/05 04:51:45;;;;;;;14.10;5.10;;;;;;;0.34;59.52;99472.84;682999;1263;138899;-80
2023/03/05 05:06:48;;;;;;;12.60;4.30;;;;;;;0.34;60.35;99468.52;683145;1263;138447;-81
2023/03/05 05:21:51;;;;;;;11.90;4.60;;;;;;;0.30;60.58;99455.52;682532;1262;139011;-79
2023/03/05 05:36:55;;;;;;;11.50;5.50;;;;;;;0.33;61.85;99457.75;683094;1263;138541;-81
2023/03/05 05:51:58;;;;;;;12.50;4.60;;;;;;;0.41;62.23;99460.55;683143;1260;138792;-80
2023/03/05 06:07:02;;;;;;;12.70;3.80;;;;;;;0.58;62.49;99453.73;683049;1271;138728;-79
2023/03/05 06:22:06;;;;;;;27.90;9.00;;;;;;;0.76;62.58;99447.64;683253;1263;138639;-79
2023/03/05 06:37:09;;;;;;;18.50;7.00;;;;;;;1.03;62.83;99436.38;683015;1266;138674;-79
2023/03/05 06:52:12;;;;;;;11.70;3.60;;;;;;;1.91;62.18;99438.55;682664;1261;139013;-80
2023/03/05 07:07:15;;;;;;;30.10;16.00;;;;;;;2.60;61.13;99438.80;683107;1263;138521;-80
2023/03/05 07:22:18;;;;;;;52.60;20.10;;;;;;;3.57;59.59;99443.09;683057;1261;139199;-80
2023/03/05 07:37:22;;;;;;;18.10;10.20;;;;;;;3.59;58.37;99435.52;683104;1260;138699;-81
2023/03/05 07:52:25;;;;;;;32.90;12.50;;;;;;;3.58;58.18;99434.36;683148;1261;139319;-81
2023/03/05 08:07:28;;;;;;;16.70;6.80;;;;;;;3.56;57.79;99439.91;683372;1260;138670;-83
2023/03/05 08:22:33;;;;;;;36.60;14.10;;;;;;;3.69;57.94;99432.58;683261;1260;138458;-82
2023/03/05 08:37:36;;;;;;;52.00;20.00;;;;;;;3.93;57.55;99425.94;682973;1260;138352;-84
2023/03/05 08:52:40;;;;;;;17.60;9.40;;;;;;;4.54;56.54;99419.85;683062;1256;138627;-83
2023/03/05 09:07:43;;;;;;;28.30;11.00;;;;;;;4.84;56.10;99413.55;683165;1262;137911;-84
2023/03/05 09:22:46;;;;;;;29.20;11.70;;;;;;;4.84;56.07;99418.95;683073;1259;138650;-84
2023/03/05 09:37:51;;;;;;;40.10;16.70;;;;;;;4.81;56.04;99415.71;683258;1271;137803;-84
2023/03/05 09:52:58;;;;;;;62.10;24.10;;;;;;;5.23;55.51;99407.54;683002;1257;138554;-85
2023/03/05 10:08:03;;;;;;;32.40;18.70;;;;;;;5.25;55.67;99396.33;683072;1259;139485;-85
2023/03/05 10:23:07;;;;;;;95.60;39.00;;;;;;;5.19;55.77;99385.92;682913;1262;137804;-86
2023/03/05 10:38:20;;;;;;;30.30;10.50;;;;;;;5.31;55.30;99381.45;683475;1259;138997;-88
2023/03/05 10:53:51;;;;;;;43.10;15.80;;;;;;;5.21;55.26;99371.16;683113;1257;138338;-87
2023/03/05 11:08:54;;;;;;;30.50;14.00;;;;;;;5.37;54.16;99362.39;683221;1259;138352;-87
2023/03/05 11:24:17;;;;;;;23.80;8.00;;;;;;;5.55;55.18;99355.20;683052;1259;137968;-88
2023/03/05 11:39:26;;;;;;;27.50;9.70;;;;;;;5.84;54.75;99349.89;683234;1262;137835;-89
2023/03/05 11:54:41;;;;;;;58.00;25.80;;;;;;;6.11;54.39;99337.08;683129;1262;137598;-91
2023/03/05 12:09:50;;;;;;;30.20;12.40;;;;;;;5.99;54.58;99326.48;683123;1262;138173;-89
2023/03/05 12:25:19;;;;;;;53.40;24.10;;;;;;;6.13;53.61;99308.23;683244;1263;138784;-87
2023/03/05 12:40:29;;;;;;;23.70;9.20;;;;;;;7.43;52.48;99296.20;683078;1257;138408;-86
2023/03/05 12:55:44;;;;;;;17.50;8.30;;;;;;;7.12;51.12;99287.70;683203;1262;137648;-90
2023/03/05 13:10:57;;;;;;;14.60;7.90;;;;;;;6.05;52.37;99284.84;683048;1260;138417;-88
2023/03/05 13:26:14;;;;;;;21.10;8.50;;;;;;;5.80;53.33;99281.56;683101;1262;137678;-90
2023/03/05 13:41:22;;;;;;;11.20;4.60;;;;;;;7.26;52.25;99277.05;682824;1263;138047;-90
2023/03/05 13:56:29;;;;;;;12.80;5.80;;;;;;;6.00;53.66;99283.23;683047;1273;137847;-86
2023/03/05 14:11:34;;;;;;;52.00;21.80;;;;;;;5.64;62.25;99281.73;683172;1263;138167;-88
2023/03/05 14:26:47;;;;;;;17.00;6.50;;;;;;;14.54;51.35;99264.06;683365;1259;139730;-87
2023/03/05 14:41:52;;;;;;;20.70;7.70;;;;;;;10.51;48.50;99266.68;683180;1262;138575;-88
2023/03/05 14:56:55;;;;;;;17.40;8.70;;;;;;;11.65;49.05;99260.69;683314;1259;137626;-87
2023/03/05 15:11:58;;;;;;;17.80;7.40;;;;;;;15.75;43.32;99262.08;683142;1259;138339;-88
2023/03/05 15:27:02;;;;;;;23.00;9.60;;;;;;;13.75;42.71;99251.69;683314;1260;138706;-84
2023/03/05 15:42:05;;;;;;;52.30;22.60;;;;;;;7.31;49.35;99253.66;683217;1259;138301;-87
2023/03/05 15:57:10;;;;;;;34.20;10.90;;;;;;;5.22;52.95;99251.27;683220;1262;137912;-87
2023/03/05 16:12:19;;;;;;;33.30;11.80;;;;;;;4.10;55.67;99255.95;683165;1261;138449;-87
2023/03/05 16:27:22;;;;;;;25.30;8.60;;;;;;;3.30;59.37;99261.50;683196;1260;137832;-87
2023/03/05 16:42:26;;;;;;;33.80;11.90;;;;;;;2.98;61.15;99268.13;683419;1262;138957;-85
2023/03/05 16:57:29;;;;;;;51.30;16.80;;;;;;;2.85;61.46;99269.41;682919;1261;140093;-85
2023/03/05 17:12:32;;;;;;;33.70;11.70;;;;;;;2.46;63.28;99272.14;683250;1261;138818;-88
2023/03/05 17:27:36;;;;;;;53.90;17.10;;;;;;;2.22;64.35;99271.23;682871;1262;138986;-87
2023/03/05 17:42:39;;;;;;;37.50;12.80;;;;;;;2.13;64.88;99273.21;683067;1262;138673;-87
2023/03/05 17:57:44;;;;;;;132.10;67.20;;;;;;;2.04;64.83;99270.59;683014;1262;139292;-86
2023/03/05 18:12:48;;;;;;;22.90;9.30;;;;;;;1.92;65.27;99264.11;682729;1260;139206;-85
2023/03/05 18:27:52;;;;;;;20.30;8.90;;;;;;;1.78;65.28;99265.96;682870;1262;138710;-84
2023/03/05 18:43:01;;;;;;;10.90;5.70;;;;;;;1.71;65.72;99274.52;682922;1260;138426;-84
2023/03/05 18:58:05;;;;;;;30.90;10.50;;;;;;;1.45;67.30;99266.91;682848;1262;138521;-83
2023/03/05 19:13:39;;;;;;;44.60;18.20;;;;;;;1.39;67.98;99270.45;683020;1261;139492;-84
2023/03/05 19:28:42;;;;;;;26.60;10.20;;;;;;;1.15;69.79;99273.71;682753;1262;138649;-82
2023/03/05 19:43:49;;;;;;;22.40;9.20;;;;;;;1.13;69.26;99280.67;683226;1262;138608;-83
2023/03/05 19:58:55;;;;;;;21.40;8.80;;;;;;;1.04;69.31;99282.82;683143;1263;138718;-84
2023/03/05 20:14:01;;;;;;;21.10;10.60;;;;;;;0.87;70.38;99281.22;683000;1262;138688;-83
2023/03/05 20:29:10;;;;;;;27.80;11.60;;;;;;;0.87;70.57;99274.50;682711;1262;138819;-83
2023/03/05 20:44:20;;;;;;;38.80;19.90;;;;;;;0.82;69.85;99272.17;682780;1262;138538;-82
2023/03/05 20:59:24;;;;;;;27.90;12.10;;;;;;;0.72;69.95;99265.28;682843;1262;138892;-82
2023/03/05 21:14:40;;;;;;;31.10;12.90;;;;;;;0.56;69.88;99256.83;682957;1262;139291;-82
2023/03/05 21:29:44;;;;;;;;;;;;;;;0.38;70.26;99250.01;683020;1263;138490;-83
2023/03/05 21:44:47;;;;;;;34.20;12.50;;;;;;;0.17;71.33;99250.38;683037;1263;124830;-81
2023/03/05 21:59:51;;;;;;;49.20;17.20;;;;;;;0.10;71.04;99248.08;682910;1261;138862;-84
2023/03/05 22:14:54;;;;;;;34.80;13.40;;;;;;;0.04;71.23;99241.74;683200;1263;138787;-81
2023/03/05 22:30:00;;;;;;;28.60;13.10;;;;;;;-0.15;73.14;99233.60;682878;1261;138798;-81
2023/03/05 22:45:05;;;;;;;33.30;13.00;;;;;;;-0.19;73.46;99226.62;682935;1263;139030;-80
2023/03/05 23:00:15;;;;;;;28.70;12.30;;;;;;;-0.13;72.71;99214.08;683009;1260;138948;-80
2023/03/05 23:15:22;;;;;;;19.60;8.00;;;;;;;-0.13;72.38;99204.25;683013;1261;138839;-80
2023/03/05 23:30:29;;;;;;;21.40;8.70;;;;;;;-0.07;71.45;99198.79;683235;1262;138708;-79
2023/03/05 23:45:32;;;;;;;30.00;13.10;;;;;;;-0.08;70.73;99190.24;682910;1263;139029;-79
